sensor_id;sensor_type;location;lat;lon;timestamp;P1;durP1;ratioP1;P2;durP2;ratioP2
33678;SDS011;23143;49.474;11.082;2022-10-15T00:15:15;0.98;;;0.88;;
33678;SDS011;23143;49.474;11.082;2022-10-15T00:16:42;1.92;;;1.08;;
33678;SDS011;23143;49.474;11.082;2022-10-15T00:17:13;0.95;;;0.82;;
33678;SDS011;23143;49.474;11.082;2022-10-15T00:17:43;2.70;;;2.03;;
33678;SDS011;23143;49.474;11.082;2022-10-15T00:18:14;2.92;;;1.73;;
33678;SDS011;23143;49.474;11.082;2022-10-15T00:18:44;4.00;;;1.90;;
33678;SDS011;23143;49.474;11.082;2022-10-15T00:19:16;2.90;;;1.83;;
33678;SDS011;23143;49.474;11.082;2022-10-15T00:19:46;2.08;;;1.80;;
33678;SDS011;23143;49.474;11.082;2022-10-15T00:20:17;5.47;;;1.92;;
33678;SDS011;23143;49.474;11.082;2022-10-15T00:20:47;2.97;;;2.00;;
33678;SDS011;23143;49.474;11.082;2022-10-15T00:21:19;3.70;;;1.83;;
33678;SDS011;23143;49.474;11.082;2022-10-15T00:21:50;2.38;;;1.75;;
33678;SDS011;23143;49.474;11.082;2022-10-15T00:22:21;2.65;;;1.83;;
33678;SDS011;23143;49.474;11.082;2022-10-15T00:22:51;1.85;;;1.67;;
33678;SDS011;23143;49.474;11.082;2022-10-15T00:23:22;1.70;;;1.45;;
33678;SDS011;23143;49.474;11.082;2022-10-15T00:23:53;1.88;;;1.52;;
33678;SDS011;23143;49.474;11.082;2022-10-15T00:24:23;2.78;;;1.67;;
33678;SDS011;23143;49.474;11.082;2022-10-15T00:24:54;3.20;;;2.10;;
33678;SDS011;23143;49.474;11.082;2022-10-15T00:25:25;1.95;;;1.60;;
33678;SDS011;23143;49.474;11.082;2022-10-15T00:26:03;2.00;;;1.60;;
33678;SDS011;23143;49.474;11.082;2022-10-15T00:26:35;2.85;;;1.67;;
33678;SDS011;23143;49.474;11.082;2022-10-15T00:27:06;2.22;;;1.60;;
33678;SDS011;23143;49.474;11.082;2022-10-15T00:27:37;2.60;;;2.00;;
33678;SDS011;23143;49.474;11.082;2022-10-15T00:28:07;2.20;;;1.83;;
33678;SDS011;23143;49.474;11.082;2022-10-15T00:28:38;2.58;;;1.48;;
33678;SDS011;23143;49.474;11.082;2022-10-15T00:29:08;3.28;;;1.25;;
33678;SDS011;23143;49.474;11.082;2022-10-15T00:29:39;3.45;;;1.80;;
33678;SDS011;23143;49.474;11.082;2022-10-15T00:30:10;1.77;;;1.45;;
33678;SDS011;23143;49.474;11.082;2022-10-15T00:30:41;4.88;;;1.83;;
33678;SDS011;23143;49.474;11.082;2022-10-15T00:31:12;2.13;;;1.50;;
33678;SDS011;23143;49.474;11.082;2022-10-15T00:31:45;2.17;;;1.77;;
33678;SDS011;23143;49.474;11.082;2022-10-15T00:32:16;1.90;;;1.50;;
33678;SDS011;23143;49.474;11.082;2022-10-15T00:32:47;2.38;;;1.52;;
33678;SDS011;23143;49.474;11.082;2022-10-15T00:33:17;1.17;;;1.08;;
33678;SDS011;23143;49.474;11.082;2022-10-15T00:33:52;1.42;;;1.17;;
33678;SDS011;23143;49.474;11.082;2022-10-15T00:34:24;2.05;;;1.67;;
33678;SDS011;23143;49.474;11.082;2022-10-15T00:34:54;2.33;;;1.70;;
33678;SDS011;23143;49.474;11.082;2022-10-15T00:35:25;2.88;;;1.75;;
33678;SDS011;23143;49.474;11.082;2022-10-15T00:35:59;1.65;;;1.50;;
33678;SDS011;23143;49.474;11.082;2022-10-15T00:36:34;1.90;;;1.45;;
33678;SDS011;23143;49.474;11.082;2022-10-15T00:37:05;2.30;;;1.70;;
33678;SDS011;23143;49.474;11.082;2022-10-15T00:37:36;2.95;;;2.05;;
33678;SDS011;23143;49.474;11.082;2022-10-15T00:38:07;5.72;;;1.63;;
33678;SDS011;23143;49.474;11.082;2022-10-15T00:38:37;1.55;;;1.35;;
33678;SDS011;23143;49.474;11.082;2022-10-15T00:39:09;2.45;;;1.38;;
33678;SDS011;23143;49.474;11.082;2022-10-15T00:39:39;1.55;;;1.38;;
33678;SDS011;23143;49.474;11.082;2022-10-15T00:40:11;2.10;;;1.50;;
33678;SDS011;23143;49.474;11.082;2022-10-15T00:40:44;1.83;;;1.23;;
33678;SDS011;23143;49.474;11.082;2022-10-15T00:41:16;1.52;;;1.38;;
33678;SDS011;23143;49.474;11.082;2022-10-15T00:41:48;3.45;;;1.98;;
33678;SDS011;23143;49.474;11.082;2022-10-15T00:42:19;1.63;;;1.52;;
33678;SDS011;23143;49.474;11.082;2022-10-15T00:42:50;3.05;;;1.90;;
33678;SDS011;23143;49.474;11.082;2022-10-15T00:44:59;4.90;;;1.77;;
33678;SDS011;23143;49.474;11.082;2022-10-15T00:45:29;3.00;;;1.85;;
33678;SDS011;23143;49.474;11.082;2022-10-15T00:46:00;1.80;;;1.10;;
33678;SDS011;23143;49.474;11.082;2022-10-15T00:47:05;1.60;;;1.20;;
33678;SDS011;23143;49.474;11.082;2022-10-15T00:47:43;1.75;;;1.10;;
33678;SDS011;23143;49.474;11.082;2022-10-15T00:48:15;2.58;;;1.92;;
33678;SDS011;23143;49.474;11.082;2022-10-15T00:48:46;2.85;;;1.92;;
33678;SDS011;23143;49.474;11.082;2022-10-15T00:49:56;2.05;;;1.70;;
33678;SDS011;23143;49.474;11.082;2022-10-15T00:50:29;2.45;;;1.67;;
33678;SDS011;23143;49.474;11.082;2022-10-15T00:50:59;3.05;;;1.38;;
33678;SDS011;23143;49.474;11.082;2022-10-15T00:51:32;1.38;;;1.20;;
33678;SDS011;23143;49.474;11.082;2022-10-15T00:52:18;1.63;;;1.42;;
33678;SDS011;23143;49.474;11.082;2022-10-15T01:09:42;2.42;;;1.88;;
33678;SDS011;23143;49.474;11.082;2022-10-15T01:12:15;2.58;;;1.23;;
33678;SDS011;23143;49.474;11.082;2022-10-15T01:13:53;3.10;;;2.05;;
33678;SDS011;23143;49.474;11.082;2022-10-15T01:16:31;1.65;;;1.20;;
33678;SDS011;23143;49.474;11.082;2022-10-15T01:17:43;2.35;;;1.08;;
33678;SDS011;23143;49.474;11.082;2022-10-15T01:21:53;1.60;;;1.38;;
33678;SDS011;23143;49.474;11.082;2022-10-15T01:25:00;4.00;;;1.60;;
33678;SDS011;23143;49.474;11.082;2022-10-15T01:31:20;1.42;;;1.33;;
33678;SDS011;23143;49.474;11.082;2022-10-15T01:32:52;1.17;;;1.08;;
33678;SDS011;23143;49.474;11.082;2022-10-15T01:34:37;1.77;;;1.00;;
33678;SDS011;23143;49.474;11.082;2022-10-15T01:37:15;1.98;;;1.35;;
33678;SDS011;23143;49.474;11.082;2022-10-15T01:38:46;2.05;;;1.85;;
33678;SDS011;23143;49.474;11.082;2022-10-15T01:39:29;2.00;;;1.52;;
33678;SDS011;23143;49.474;11.082;2022-10-15T01:40:04;1.75;;;1.23;;
33678;SDS011;23143;49.474;11.082;2022-10-15T01:41:29;2.35;;;1.55;;
33678;SDS011;23143;49.474;11.082;2022-10-15T01:42:27;2.25;;;2.03;;
33678;SDS011;23143;49.474;11.082;2022-10-15T01:43:21;2.08;;;1.40;;
33678;SDS011;23143;49.474;11.082;2022-10-15T01:44:10;1.70;;;1.27;;
33678;SDS011;23143;49.474;11.082;2022-10-15T01:45:15;2.10;;;1.10;;
33678;SDS011;23143;49.474;11.082;2022-10-15T01:46:00;6.03;;;1.80;;
33678;SDS011;23143;49.474;11.082;2022-10-15T01:46:50;3.42;;;1.55;;
33678;SDS011;23143;49.474;11.082;2022-10-15T01:47:33;1.80;;;1.25;;
33678;SDS011;23143;49.474;11.082;2022-10-15T01:48:14;2.67;;;1.55;;
33678;SDS011;23143;49.474;11.082;2022-10-15T01:48:46;2.33;;;1.52;;
33678;SDS011;23143;49.474;11.082;2022-10-15T01:49:19;1.42;;;1.23;;
33678;SDS011;23143;49.474;11.082;2022-10-15T01:49:51;1.17;;;1.08;;
33678;SDS011;23143;49.474;11.082;2022-10-15T01:50:24;4.18;;;1.38;;
33678;SDS011;23143;49.474;11.082;2022-10-15T01:50:56;2.47;;;1.42;;
33678;SDS011;23143;49.474;11.082;2022-10-15T01:51:29;2.60;;;1.70;;
33678;SDS011;23143;49.474;11.082;2022-10-15T01:52:05;2.10;;;1.48;;
33678;SDS011;23143;49.474;11.082;2022-10-15T01:52:42;1.67;;;1.08;;
33678;SDS011;23143;49.474;11.082;2022-10-15T01:53:14;1.75;;;0.95;;
33678;SDS011;23143;49.474;11.082;2022-10-15T01:53:49;1.98;;;1.35;;
33678;SDS011;23143;49.474;11.082;2022-10-15T01:54:20;2.80;;;1.70;;
33678;SDS011;23143;49.474;11.082;2022-10-15T01:54:53;1.60;;;1.50;;
33678;SDS011;23143;49.474;11.082;2022-10-15T01:55:24;1.95;;;1.35;;
33678;SDS011;23143;49.474;11.082;2022-10-15T01:55:59;1.88;;;1.10;;
33678;SDS011;23143;49.474;11.082;2022-10-15T01:56:51;2.25;;;1.38;;
33678;SDS011;23143;49.474;11.082;2022-10-15T01:57:24;1.48;;;1.23;;
33678;SDS011;23143;49.474;11.082;2022-10-15T01:57:56;1.63;;;0.98;;
33678;SDS011;23143;49.474;11.082;2022-10-15T01:58:28;2.10;;;1.50;;
33678;SDS011;23143;49.474;11.082;2022-10-15T01:58:59;1.23;;;1.13;;
33678;SDS011;23143;49.474;11.082;2022-10-15T01:59:30;1.65;;;1.25;;
33678;SDS011;23143;49.474;11.082;2022-10-15T02:00:02;1.63;;;1.30;;
33678;SDS011;23143;49.474;11.082;2022-10-15T02:00:34;1.70;;;1.17;;
33678;SDS011;23143;49.474;11.082;2022-10-15T02:01:04;2.92;;;1.75;;
33678;SDS011;23143;49.474;11.082;2022-10-15T02:01:35;1.92;;;1.23;;
33678;SDS011;23143;49.474;11.082;2022-10-15T02:02:06;1.48;;;1.10;;
33678;SDS011;23143;49.474;11.082;2022-10-15T02:02:37;1.60;;;0.80;;
33678;SDS011;23143;49.474;11.082;2022-10-15T02:03:07;1.38;;;1.05;;
33678;SDS011;23143;49.474;11.082;2022-10-15T02:03:45;0.85;;;0.85;;
33678;SDS011;23143;49.474;11.082;2022-10-15T02:10:19;2.42;;;1.23;;
33678;SDS011;23143;49.474;11.082;2022-10-15T02:11:07;1.60;;;1.45;;
33678;SDS011;23143;49.474;11.082;2022-10-15T02:11:44;2.40;;;1.83;;
33678;SDS011;23143;49.474;11.082;2022-10-15T02:14:10;0.80;;;0.68;;
33678;SDS011;23143;49.474;11.082;2022-10-15T02:15:40;0.90;;;0.90;;
33678;SDS011;23143;49.474;11.082;2022-10-15T02:16:51;0.80;;;0.68;;
33678;SDS011;23143;49.474;11.082;2022-10-15T02:20:41;0.55;;;0.55;;
33678;SDS011;23143;49.474;11.082;2022-10-15T02:22:36;1.35;;;0.85;;
33678;SDS011;23143;49.474;11.082;2022-10-15T02:24:25;1.45;;;1.00;;
33678;SDS011;23143;49.474;11.082;2022-10-15T02:25:02;1.92;;;0.85;;
33678;SDS011;23143;49.474;11.082;2022-10-15T02:47:50;2.17;;;0.85;;
33678;SDS011;23143;49.474;11.082;2022-10-15T02:49:23;0.50;;;0.45;;
33678;SDS011;23143;49.474;11.082;2022-10-15T02:49:54;2.88;;;1.00;;
33678;SDS011;23143;49.474;11.082;2022-10-15T02:50:24;1.00;;;0.90;;
33678;SDS011;23143;49.474;11.082;2022-10-15T02:50:55;0.65;;;0.60;;
33678;SDS011;23143;49.474;11.082;2022-10-15T02:51:25;1.88;;;1.00;;
33678;SDS011;23143;49.474;11.082;2022-10-15T02:51:56;1.05;;;0.90;;
33678;SDS011;23143;49.474;11.082;2022-10-15T02:52:27;1.20;;;1.10;;
33678;SDS011;23143;49.474;11.082;2022-10-15T02:52:57;1.55;;;1.05;;
33678;SDS011;23143;49.474;11.082;2022-10-15T02:53:28;1.98;;;1.50;;
33678;SDS011;23143;49.474;11.082;2022-10-15T02:53:59;1.48;;;0.95;;
33678;SDS011;23143;49.474;11.082;2022-10-15T02:54:30;1.40;;;0.93;;
33678;SDS011;23143;49.474;11.082;2022-10-15T02:55:01;1.70;;;1.25;;
33678;SDS011;23143;49.474;11.082;2022-10-15T02:55:32;0.82;;;0.82;;
33678;SDS011;23143;49.474;11.082;2022-10-15T02:56:03;1.25;;;1.00;;
33678;SDS011;23143;49.474;11.082;2022-10-15T02:56:34;1.40;;;1.20;;
33678;SDS011;23143;49.474;11.082;2022-10-15T02:57:04;1.25;;;0.82;;
33678;SDS011;23143;49.474;11.082;2022-10-15T02:57:35;2.40;;;1.08;;
33678;SDS011;23143;49.474;11.082;2022-10-15T02:58:06;4.00;;;1.45;;
33678;SDS011;23143;49.474;11.082;2022-10-15T02:58:36;2.08;;;1.02;;
33678;SDS011;23143;49.474;11.082;2022-10-15T02:59:07;1.25;;;0.68;;
33678;SDS011;23143;49.474;11.082;2022-10-15T02:59:37;1.30;;;1.20;;
33678;SDS011;23143;49.474;11.082;2022-10-15T03:00:08;1.08;;;0.75;;
33678;SDS011;23143;49.474;11.082;2022-10-15T03:00:39;1.70;;;0.65;;
33678;SDS011;23143;49.474;11.082;2022-10-15T03:01:10;0.70;;;0.70;;
33678;SDS011;23143;49.474;11.082;2022-10-15T03:01:41;0.73;;;0.70;;
33678;SDS011;23143;49.474;11.082;2022-10-15T03:02:11;2.17;;;1.25;;
33678;SDS011;23143;49.474;11.082;2022-10-15T03:02:42;0.75;;;0.73;;
33678;SDS011;23143;49.474;11.082;2022-10-15T03:03:13;0.98;;;0.90;;
33678;SDS011;23143;49.474;11.082;2022-10-15T03:03:44;1.60;;;1.50;;
33678;SDS011;23143;49.474;11.082;2022-10-15T03:04:14;1.77;;;1.20;;
33678;SDS011;23143;49.474;11.082;2022-10-15T03:04:45;1.02;;;0.90;;
33678;SDS011;23143;49.474;11.082;2022-10-15T03:05:16;1.48;;;0.50;;
33678;SDS011;23143;49.474;11.082;2022-10-15T03:05:47;1.60;;;0.90;;
33678;SDS011;23143;49.474;11.082;2022-10-15T03:06:17;2.58;;;1.20;;
33678;SDS011;23143;49.474;11.082;2022-10-15T03:06:48;0.68;;;0.68;;
33678;SDS011;23143;49.474;11.082;2022-10-15T03:07:19;0.57;;;0.57;;
33678;SDS011;23143;49.474;11.082;2022-10-15T03:07:50;1.67;;;1.00;;
33678;SDS011;23143;49.474;11.082;2022-10-15T03:08:21;0.57;;;0.57;;
33678;SDS011;23143;49.474;11.082;2022-10-15T03:08:51;0.95;;;0.68;;
33678;SDS011;23143;49.474;11.082;2022-10-15T03:09:22;0.70;;;0.60;;
33678;SDS011;23143;49.474;11.082;2022-10-15T03:09:53;1.08;;;0.98;;
33678;SDS011;23143;49.474;11.082;2022-10-15T03:10:23;0.73;;;0.70;;
33678;SDS011;23143;49.474;11.082;2022-10-15T03:10:54;6.05;;;0.77;;
33678;SDS011;23143;49.474;11.082;2022-10-15T03:11:25;0.65;;;0.55;;
33678;SDS011;23143;49.474;11.082;2022-10-15T03:11:55;1.08;;;0.80;;
33678;SDS011;23143;49.474;11.082;2022-10-15T03:12:26;1.83;;;0.77;;
33678;SDS011;23143;49.474;11.082;2022-10-15T03:13:00;1.75;;;0.93;;
33678;SDS011;23143;49.474;11.082;2022-10-15T03:18:06;1.17;;;0.70;;
33678;SDS011;23143;49.474;11.082;2022-10-15T03:19:40;1.00;;;0.73;;
33678;SDS011;23143;49.474;11.082;2022-10-15T03:20:11;1.00;;;0.70;;
33678;SDS011;23143;49.474;11.082;2022-10-15T03:20:41;1.02;;;0.70;;
33678;SDS011;23143;49.474;11.082;2022-10-15T03:21:12;1.35;;;0.65;;
33678;SDS011;23143;49.474;11.082;2022-10-15T03:21:43;6.22;;;1.00;;
33678;SDS011;23143;49.474;11.082;2022-10-15T03:22:13;0.75;;;0.65;;
33678;SDS011;23143;49.474;11.082;2022-10-15T03:22:44;0.50;;;0.50;;
33678;SDS011;23143;49.474;11.082;2022-10-15T03:23:15;1.60;;;1.00;;
33678;SDS011;23143;49.474;11.082;2022-10-15T03:23:45;1.00;;;1.00;;
33678;SDS011;23143;49.474;11.082;2022-10-15T03:24:16;2.40;;;1.10;;
33678;SDS011;23143;49.474;11.082;2022-10-15T03:24:47;3.70;;;0.90;;
33678;SDS011;23143;49.474;11.082;2022-10-15T03:25:17;0.93;;;0.70;;
33678;SDS011;23143;49.474;11.082;2022-10-15T03:25:48;1.13;;;0.77;;
33678;SDS011;23143;49.474;11.082;2022-10-15T03:26:18;1.02;;;0.88;;
33678;SDS011;23143;49.474;11.082;2022-10-15T03:26:49;0.68;;;0.68;;
33678;SDS011;23143;49.474;11.082;2022-10-15T03:27:20;1.25;;;1.02;;
33678;SDS011;23143;49.474;11.082;2022-10-15T03:27:50;0.80;;;0.80;;
33678;SDS011;23143;49.474;11.082;2022-10-15T03:28:24;0.82;;;0.82;;
33678;SDS011;23143;49.474;11.082;2022-10-15T03:28:54;3.80;;;0.75;;
33678;SDS011;23143;49.474;11.082;2022-10-15T03:29:25;0.93;;;0.70;;
33678;SDS011;23143;49.474;11.082;2022-10-15T03:29:55;1.02;;;0.93;;
33678;SDS011;23143;49.474;11.082;2022-10-15T03:30:26;0.65;;;0.65;;
33678;SDS011;23143;49.474;11.082;2022-10-15T03:30:57;0.80;;;0.80;;
33678;SDS011;23143;49.474;11.082;2022-10-15T03:31:27;0.50;;;0.50;;
33678;SDS011;23143;49.474;11.082;2022-10-15T03:31:58;0.93;;;0.80;;
33678;SDS011;23143;49.474;11.082;2022-10-15T03:32:28;1.52;;;0.95;;
33678;SDS011;23143;49.474;11.082;2022-10-15T03:32:59;1.70;;;0.73;;
33678;SDS011;23143;49.474;11.082;2022-10-15T03:33:29;1.13;;;0.68;;
33678;SDS011;23143;49.474;11.082;2022-10-15T03:34:00;1.27;;;0.73;;
33678;SDS011;23143;49.474;11.082;2022-10-15T03:34:31;0.60;;;0.60;;
33678;SDS011;23143;49.474;11.082;2022-10-15T03:35:01;1.02;;;0.77;;
33678;SDS011;23143;49.474;11.082;2022-10-15T03:35:32;0.75;;;0.60;;
33678;SDS011;23143;49.474;11.082;2022-10-15T03:36:03;0.63;;;0.60;;
33678;SDS011;23143;49.474;11.082;2022-10-15T03:36:34;0.55;;;0.55;;
33678;SDS011;23143;49.474;11.082;2022-10-15T03:37:04;0.70;;;0.70;;
33678;SDS011;23143;49.474;11.082;2022-10-15T03:37:35;0.68;;;0.68;;
33678;SDS011;23143;49.474;11.082;2022-10-15T03:38:06;1.15;;;0.60;;
33678;SDS011;23143;49.474;11.082;2022-10-15T03:38:37;0.55;;;0.55;;
33678;SDS011;23143;49.474;11.082;2022-10-15T03:39:07;0.50;;;0.50;;
33678;SDS011;23143;49.474;11.082;2022-10-15T03:39:39;0.60;;;0.60;;
33678;SDS011;23143;49.474;11.082;2022-10-15T03:40:10;0.50;;;0.50;;
33678;SDS011;23143;49.474;11.082;2022-10-15T03:40:42;0.40;;;0.40;;
33678;SDS011;23143;49.474;11.082;2022-10-15T03:41:14;0.77;;;0.63;;
33678;SDS011;23143;49.474;11.082;2022-10-15T03:41:44;0.70;;;0.55;;
33678;SDS011;23143;49.474;11.082;2022-10-15T03:42:15;2.28;;;0.93;;
33678;SDS011;23143;49.474;11.082;2022-10-15T03:42:49;0.63;;;0.60;;
33678;SDS011;23143;49.474;11.082;2022-10-15T03:43:22;3.70;;;1.65;;
33678;SDS011;23143;49.474;11.082;2022-10-15T03:43:54;0.63;;;0.63;;
33678;SDS011;23143;49.474;11.082;2022-10-15T03:49:04;0.45;;;0.38;;
33678;SDS011;23143;49.474;11.082;2022-10-15T03:50:38;0.70;;;0.68;;
33678;SDS011;23143;49.474;11.082;2022-10-15T03:51:09;1.52;;;0.75;;
33678;SDS011;23143;49.474;11.082;2022-10-15T03:51:39;0.73;;;0.50;;
33678;SDS011;23143;49.474;11.082;2022-10-15T03:52:10;0.60;;;0.60;;
33678;SDS011;23143;49.474;11.082;2022-10-15T03:52:40;1.33;;;0.90;;
33678;SDS011;23143;49.474;11.082;2022-10-15T03:53:12;1.75;;;0.80;;
33678;SDS011;23143;49.474;11.082;2022-10-15T03:53:42;4.20;;;0.68;;
33678;SDS011;23143;49.474;11.082;2022-10-15T03:54:13;0.70;;;0.70;;
33678;SDS011;23143;49.474;11.082;2022-10-15T03:54:43;0.90;;;0.80;;
33678;SDS011;23143;49.474;11.082;2022-10-15T03:55:14;0.77;;;0.60;;
33678;SDS011;23143;49.474;11.082;2022-10-15T03:55:45;0.90;;;0.70;;
33678;SDS011;23143;49.474;11.082;2022-10-15T03:56:15;0.95;;;0.63;;
33678;SDS011;23143;49.474;11.082;2022-10-15T03:56:46;0.43;;;0.30;;
33678;SDS011;23143;49.474;11.082;2022-10-15T03:57:16;1.30;;;0.73;;
33678;SDS011;23143;49.474;11.082;2022-10-15T03:57:47;4.10;;;0.68;;
33678;SDS011;23143;49.474;11.082;2022-10-15T03:58:18;1.27;;;0.55;;
33678;SDS011;23143;49.474;11.082;2022-10-15T03:58:48;0.82;;;0.82;;
33678;SDS011;23143;49.474;11.082;2022-10-15T03:59:19;1.25;;;0.65;;
33678;SDS011;23143;49.474;11.082;2022-10-15T03:59:50;0.85;;;0.70;;
33678;SDS011;23143;49.474;11.082;2022-10-15T04:00:20;0.45;;;0.38;;
33678;SDS011;23143;49.474;11.082;2022-10-15T04:00:51;1.17;;;0.90;;
33678;SDS011;23143;49.474;11.082;2022-10-15T04:01:22;0.77;;;0.57;;
33678;SDS011;23143;49.474;11.082;2022-10-15T04:01:52;1.33;;;0.70;;
33678;SDS011;23143;49.474;11.082;2022-10-15T04:02:23;0.60;;;0.50;;
33678;SDS011;23143;49.474;11.082;2022-10-15T04:02:54;1.15;;;0.75;;
33678;SDS011;23143;49.474;11.082;2022-10-15T04:03:25;1.13;;;0.50;;
33678;SDS011;23143;49.474;11.082;2022-10-15T04:03:55;0.73;;;0.57;;
33678;SDS011;23143;49.474;11.082;2022-10-15T04:04:26;1.17;;;0.75;;
33678;SDS011;23143;49.474;11.082;2022-10-15T04:04:56;0.60;;;0.60;;
33678;SDS011;23143;49.474;11.082;2022-10-15T04:05:27;0.65;;;0.63;;
33678;SDS011;23143;49.474;11.082;2022-10-15T04:05:58;0.95;;;0.65;;
33678;SDS011;23143;49.474;11.082;2022-10-15T04:06:28;1.25;;;0.75;;
33678;SDS011;23143;49.474;11.082;2022-10-15T04:06:59;0.45;;;0.45;;
33678;SDS011;23143;49.474;11.082;2022-10-15T04:07:30;0.70;;;0.70;;
33678;SDS011;23143;49.474;11.082;2022-10-15T04:08:01;0.63;;;0.50;;
33678;SDS011;23143;49.474;11.082;2022-10-15T04:08:32;1.45;;;0.43;;
33678;SDS011;23143;49.474;11.082;2022-10-15T04:09:03;0.65;;;0.40;;
33678;SDS011;23143;49.474;11.082;2022-10-15T04:09:34;1.23;;;0.63;;
33678;SDS011;23143;49.474;11.082;2022-10-15T04:10:04;1.35;;;0.60;;
33678;SDS011;23143;49.474;11.082;2022-10-15T04:10:35;0.75;;;0.63;;
33678;SDS011;23143;49.474;11.082;2022-10-15T04:11:06;2.50;;;0.65;;
33678;SDS011;23143;49.474;11.082;2022-10-15T04:11:37;0.70;;;0.70;;
33678;SDS011;23143;49.474;11.082;2022-10-15T04:12:07;0.63;;;0.52;;
33678;SDS011;23143;49.474;11.082;2022-10-15T04:12:38;1.48;;;0.68;;
33678;SDS011;23143;49.474;11.082;2022-10-15T04:13:08;0.52;;;0.32;;
33678;SDS011;23143;49.474;11.082;2022-10-15T04:13:39;0.82;;;0.82;;
33678;SDS011;23143;49.474;11.082;2022-10-15T04:14:10;0.88;;;0.70;;
33678;SDS011;23143;49.474;11.082;2022-10-15T04:14:40;1.52;;;1.13;;
33678;SDS011;23143;49.474;11.082;2022-10-15T04:15:11;1.52;;;0.55;;
33678;SDS011;23143;49.474;11.082;2022-10-15T04:15:42;0.52;;;0.52;;
33678;SDS011;23143;49.474;11.082;2022-10-15T04:16:12;0.98;;;0.80;;
33678;SDS011;23143;49.474;11.082;2022-10-15T04:16:43;1.27;;;1.08;;
33678;SDS011;23143;49.474;11.082;2022-10-15T04:17:14;1.17;;;0.60;;
33678;SDS011;23143;49.474;11.082;2022-10-15T04:17:45;0.60;;;0.60;;
33678;SDS011;23143;49.474;11.082;2022-10-15T04:18:15;1.35;;;0.75;;
33678;SDS011;23143;49.474;11.082;2022-10-15T04:18:46;0.40;;;0.40;;
33678;SDS011;23143;49.474;11.082;2022-10-15T04:19:17;0.40;;;0.40;;
33678;SDS011;23143;49.474;11.082;2022-10-15T04:19:47;0.45;;;0.45;;
33678;SDS011;23143;49.474;11.082;2022-10-15T04:20:18;0.63;;;0.50;;
33678;SDS011;23143;49.474;11.082;2022-10-15T04:20:49;0.55;;;0.55;;
33678;SDS011;23143;49.474;11.082;2022-10-15T04:21:19;0.55;;;0.55;;
33678;SDS011;23143;49.474;11.082;2022-10-15T04:21:50;0.70;;;0.60;;
33678;SDS011;23143;49.474;11.082;2022-10-15T04:22:21;0.50;;;0.50;;
33678;SDS011;23143;49.474;11.082;2022-10-15T04:22:51;0.88;;;0.82;;
33678;SDS011;23143;49.474;11.082;2022-10-15T04:23:22;0.73;;;0.73;;
33678;SDS011;23143;49.474;11.082;2022-10-15T04:23:53;0.47;;;0.47;;
33678;SDS011;23143;49.474;11.082;2022-10-15T04:24:23;0.50;;;0.50;;
33678;SDS011;23143;49.474;11.082;2022-10-15T04:24:54;0.40;;;0.40;;
33678;SDS011;23143;49.474;11.082;2022-10-15T04:25:25;1.00;;;0.50;;
33678;SDS011;23143;49.474;11.082;2022-10-15T04:25:58;0.85;;;0.40;;
33678;SDS011;23143;49.474;11.082;2022-10-15T04:26:30;0.35;;;0.35;;
33678;SDS011;23143;49.474;11.082;2022-10-15T04:27:00;0.98;;;0.70;;
33678;SDS011;23143;49.474;11.082;2022-10-15T04:27:31;0.50;;;0.50;;
33678;SDS011;23143;49.474;11.082;2022-10-15T04:28:01;0.57;;;0.52;;
33678;SDS011;23143;49.474;11.082;2022-10-15T04:28:32;0.60;;;0.60;;
33678;SDS011;23143;49.474;11.082;2022-10-15T04:29:03;0.43;;;0.43;;
33678;SDS011;23143;49.474;11.082;2022-10-15T04:29:33;0.70;;;0.60;;
33678;SDS011;23143;49.474;11.082;2022-10-15T04:30:04;0.57;;;0.57;;
33678;SDS011;23143;49.474;11.082;2022-10-15T04:30:35;0.80;;;0.52;;
33678;SDS011;23143;49.474;11.082;2022-10-15T04:31:06;0.68;;;0.68;;
33678;SDS011;23143;49.474;11.082;2022-10-15T04:31:37;1.38;;;0.90;;
33678;SDS011;23143;49.474;11.082;2022-10-15T04:32:10;0.88;;;0.65;;
33678;SDS011;23143;49.474;11.082;2022-10-15T04:32:57;0.65;;;0.57;;
33678;SDS011;23143;49.474;11.082;2022-10-15T04:33:28;0.80;;;0.80;;
33678;SDS011;23143;49.474;11.082;2022-10-15T04:33:59;1.77;;;0.73;;
33678;SDS011;23143;49.474;11.082;2022-10-15T04:34:29;1.13;;;0.70;;
33678;SDS011;23143;49.474;11.082;2022-10-15T04:35:00;0.93;;;0.55;;
33678;SDS011;23143;49.474;11.082;2022-10-15T04:35:30;1.50;;;0.52;;
33678;SDS011;23143;49.474;11.082;2022-10-15T04:36:05;0.93;;;0.57;;
33678;SDS011;23143;49.474;11.082;2022-10-15T04:36:50;0.55;;;0.55;;
33678;SDS011;23143;49.474;11.082;2022-10-15T04:37:21;0.95;;;0.43;;
33678;SDS011;23143;49.474;11.082;2022-10-15T04:37:51;0.88;;;0.88;;
33678;SDS011;23143;49.474;11.082;2022-10-15T04:38:22;1.17;;;0.80;;
33678;SDS011;23143;49.474;11.082;2022-10-15T04:38:53;1.02;;;0.88;;
33678;SDS011;23143;49.474;11.082;2022-10-15T04:39:23;0.63;;;0.63;;
33678;SDS011;23143;49.474;11.082;2022-10-15T04:39:54;1.10;;;1.00;;
33678;SDS011;23143;49.474;11.082;2022-10-15T04:40:24;1.05;;;0.77;;
33678;SDS011;23143;49.474;11.082;2022-10-15T04:47:49;1.75;;;0.75;;
33678;SDS011;23143;49.474;11.082;2022-10-15T04:49:22;0.50;;;0.50;;
33678;SDS011;23143;49.474;11.082;2022-10-15T04:49:53;0.47;;;0.47;;
33678;SDS011;23143;49.474;11.082;2022-10-15T04:50:23;0.60;;;0.60;;
33678;SDS011;23143;49.474;11.082;2022-10-15T04:50:54;0.47;;;0.47;;
33678;SDS011;23143;49.474;11.082;2022-10-15T04:51:25;1.13;;;1.08;;
33678;SDS011;23143;49.474;11.082;2022-10-15T04:51:56;0.55;;;0.50;;
33678;SDS011;23143;49.474;11.082;2022-10-15T04:52:26;0.60;;;0.60;;
33678;SDS011;23143;49.474;11.082;2022-10-15T04:52:58;4.03;;;1.63;;
33678;SDS011;23143;49.474;11.082;2022-10-15T04:53:29;1.23;;;0.93;;
33678;SDS011;23143;49.474;11.082;2022-10-15T04:54:00;0.70;;;0.70;;
33678;SDS011;23143;49.474;11.082;2022-10-15T04:54:30;1.88;;;0.80;;
33678;SDS011;23143;49.474;11.082;2022-10-15T04:55:01;1.42;;;1.20;;
33678;SDS011;23143;49.474;11.082;2022-10-15T04:55:33;0.63;;;0.63;;
33678;SDS011;23143;49.474;11.082;2022-10-15T04:56:09;0.43;;;0.43;;
33678;SDS011;23143;49.474;11.082;2022-10-15T04:56:56;1.25;;;0.80;;
33678;SDS011;23143;49.474;11.082;2022-10-15T04:57:27;0.80;;;0.63;;
33678;SDS011;23143;49.474;11.082;2022-10-15T04:57:57;0.60;;;0.60;;
33678;SDS011;23143;49.474;11.082;2022-10-15T04:58:29;0.65;;;0.65;;
33678;SDS011;23143;49.474;11.082;2022-10-15T04:59:00;0.50;;;0.47;;
33678;SDS011;23143;49.474;11.082;2022-10-15T04:59:35;0.60;;;0.60;;
33678;SDS011;23143;49.474;11.082;2022-10-15T05:00:05;1.05;;;0.80;;
33678;SDS011;23143;49.474;11.082;2022-10-15T05:00:37;0.60;;;0.60;;
33678;SDS011;23143;49.474;11.082;2022-10-15T05:01:09;0.52;;;0.52;;
33678;SDS011;23143;49.474;11.082;2022-10-15T05:01:41;1.08;;;0.98;;
33678;SDS011;23143;49.474;11.082;2022-10-15T05:02:12;1.23;;;0.98;;
33678;SDS011;23143;49.474;11.082;2022-10-15T05:02:42;0.60;;;0.60;;
33678;SDS011;23143;49.474;11.082;2022-10-15T05:03:13;0.77;;;0.77;;
33678;SDS011;23143;49.474;11.082;2022-10-15T05:03:44;0.50;;;0.50;;
33678;SDS011;23143;49.474;11.082;2022-10-15T05:04:15;0.70;;;0.70;;
33678;SDS011;23143;49.474;11.082;2022-10-15T05:04:46;0.50;;;0.50;;
33678;SDS011;23143;49.474;11.082;2022-10-15T05:05:17;0.47;;;0.47;;
33678;SDS011;23143;49.474;11.082;2022-10-15T05:05:47;2.17;;;0.50;;
33678;SDS011;23143;49.474;11.082;2022-10-15T05:06:19;0.50;;;0.40;;
33678;SDS011;23143;49.474;11.082;2022-10-15T05:06:50;1.27;;;0.95;;
33678;SDS011;23143;49.474;11.082;2022-10-15T05:07:21;0.50;;;0.43;;